Time;durP1;ratioP1;P1;durP2;ratioP2;P2;SDS_P1;SDS_P2;PMS_P1;PMS_P2;Temp;Humidity;BMP_temperature;BMP_pressure;BME280_temperature;BME280_humidity;BME280_pressure;Samples;Min_cycle;Max_cycle;Signal;HPM_P1;HPM_P2
2023/10/16 00:01:10;;;;;;;4.95;1.35;;;;;;;9.26;71.35;102163.56;7393538;19;20374;-61
2023/10/16 00:03:41;;;;;;;7.85;1.40;;;;;;;9.33;71.16;102166.81;7393915;19;20022;-62
2023/10/16 00:06:11;;;;;;;5.60;1.40;;;;;;;9.32;70.97;102166.88;7394331;19;20014;-61
2023/10/16 00:08:48;;;;;;;9.20;1.60;;;;;;;9.23;71.38;102155.81;7392693;19;20035;-61
2023/10/16 00:11:19;;;;;;;6.38;1.20;;;;;;;9.26;71.67;102160.94;7393917;19;20014;-61
2023/10/16 00:13:47;;;;;;;6.03;1.40;;;;;;;9.30;71.72;102161.66;7393375;19;20046;-63
2023/10/16 00:16:17;;;;;;;5.55;1.40;;;;;;;9.33;71.35;102164.16;7393997;19;20039;-62
2023/10/16 00:18:50;;;;;;;6.78;1.75;;;;;;;9.25;71.53;102156.56;7389783;19;20031;-63
2023/10/16 00:21:18;;;;;;;6.40;1.40;;;;;;;9.22;71.81;102164.66;7393541;19;20018;-61
2023/10/16 00:23:46;;;;;;;6.10;1.38;;;;;;;9.16;71.85;102157.00;7393446;19;20044;-61
2023/10/16 00:26:19;;;;;;;8.45;1.33;;;;;;;9.25;71.57;102153.09;7393376;19;20074;-61
2023/10/16 00:28:52;;;;;;;;;;;;;;;9.09;72.10;102160.00;7395061;19;20018;-60
2023/10/16 00:31:22;;;;;;;5.72;1.17;;;;;;;9.03;72.84;102159.31;7394797;19;19934;-60
2023/10/16 00:33:51;;;;;;;5.85;1.23;;;;;;;9.24;72.21;102160.16;7392307;19;20023;-60
2023/10/16 00:36:19;;;;;;;7.93;1.50;;;;;;;9.29;71.99;102159.94;7393304;19;20476;-59
2023/10/16 00:38:49;;;;;;;7.13;1.30;;;;;;;9.24;72.12;102157.50;7390516;19;20033;-58
2023/10/16 00:41:28;;;;;;;7.55;1.30;;;;;;;9.33;72.20;102148.31;7391298;19;20014;-57
2023/10/16 00:43:57;;;;;;;9.07;1.70;;;;;;;9.29;71.84;102154.66;7392295;19;20026;-57
2023/10/16 00:46:30;;;;;;;5.72;1.30;;;;;;;9.36;71.71;102152.59;7393226;19;20512;-56
2023/10/16 00:48:58;;;;;;;6.33;1.33;;;;;;;9.33;71.89;102147.44;7390625;19;20020;-56
2023/10/16 00:51:27;;;;;;;8.43;1.50;;;;;;;9.32;71.54;102146.59;7392131;19;20021;-54
2023/10/16 00:54:18;;;;;;;5.20;1.23;;;;;;;9.25;72.02;102140.72;7390673;19;20364;-57
2023/10/16 00:56:51;;;;;;;5.13;1.30;;;;;;;9.32;71.58;102146.59;7392866;19;20026;-57
2023/10/16 00:59:19;;;;;;;6.63;1.30;;;;;;;9.31;71.93;102151.94;7390117;19;20082;-54
2023/10/16 01:01:47;;;;;;;9.13;1.65;;;;;;;9.22;72.11;102143.50;7392705;19;20082;-56
2023/10/16 01:04:17;;;;;;;5.43;1.10;;;;;;;9.19;72.25;102142.78;7392675;19;20019;-62
2023/10/16 01:06:45;;;;;;;4.88;1.10;;;;;;;9.23;72.24;102142.59;7391047;19;20040;-57
2023/10/16 01:09:22;;;;;;;4.20;1.17;;;;;;;9.28;72.20;102145.88;7389990;19;20483;-57
2023/10/16 01:11:52;;;;;;;7.10;1.40;;;;;;;9.24;72.28;102144.31;7392106;19;20015;-58
2023/10/16 01:14:20;;;;;;;7.88;1.60;;;;;;;9.28;72.02;102148.50;7391473;19;20014;-57
2023/10/16 01:16:49;;;;;;;5.78;1.30;;;;;;;9.31;71.97;102150.16;7391799;19;20019;-56
2023/10/16 01:19:19;;;;;;;6.82;1.38;;;;;;;9.33;72.03;102145.66;7389917;19;20090;-61
2023/10/16 01:21:48;;;;;;;6.57;1.38;;;;;;;9.38;71.93;102148.94;7392341;19;20090;-63
2023/10/16 01:24:19;;;;;;;4.20;0.95;;;;;;;9.35;72.21;102143.81;7392063;19;20015;-63
2023/10/16 01:26:50;;;;;;;4.20;1.40;;;;;;;9.34;72.09;102142.06;7392556;19;20020;-63
2023/10/16 01:29:20;;;;;;;5.82;1.33;;;;;;;9.40;72.02;102149.72;7387902;19;20059;-63
2023/10/16 01:31:52;;;;;;;4.15;1.00;;;;;;;9.42;72.07;102152.28;7390903;19;20018;-63
2023/10/16 01:34:22;;;;;;;7.70;1.38;;;;;;;9.34;72.63;102142.06;7391835;19;20010;-63
2023/10/16 01:36:51;;;;;;;7.78;1.33;;;;;;;9.33;73.03;102153.59;7390943;19;20035;-63
2023/10/16 01:42:11;;;;;;;9.05;1.27;;;;;;;9.45;72.54;102153.00;7391352;19;20018;-62
2023/10/16 01:44:39;;;;;;;;;;;;;;;9.35;73.29;102156.16;7391915;19;20347;-63
2023/10/16 01:47:15;;;;;;;6.90;1.33;;;;;;;9.41;73.44;102148.81;7394468;19;19922;-63
2023/10/16 01:49:49;;;;;;;6.15;1.20;;;;;;;9.61;72.92;102152.28;7394590;19;20026;-64
2023/10/16 01:52:17;;;;;;;6.05;1.30;;;;;;;9.55;73.08;102152.59;7398343;19;20047;-65
2023/10/16 01:54:46;;;;;;;5.13;1.30;;;;;;;9.69;72.68;102155.44;7397180;19;20372;-65
2023/10/16 01:57:15;;;;;;;7.18;1.42;;;;;;;9.71;72.54;102164.16;7397613;19;20015;-65
2023/10/16 01:59:47;;;;;;;6.28;1.30;;;;;;;9.71;72.65;102153.59;7394623;19;20018;-65
2023/10/16 02:02:17;;;;;;;5.50;1.02;;;;;;;9.65;72.90;102160.00;7397604;19;20018;-60
2023/10/16 02:04:45;;;;;;;4.35;1.10;;;;;;;9.73;72.96;102157.88;7397749;19;20416;-60
2023/10/16 02:07:13;;;;;;;5.30;1.20;;;;;;;9.81;72.86;102159.31;7397734;19;20442;-61
2023/10/16 02:09:41;;;;;;;13.57;1.80;;;;;;;9.85;72.78;102145.84;7394205;19;20014;-61
2023/10/16 02:12:16;;;;;;;8.38;1.45;;;;;;;9.85;73.05;102153.78;7397689;19;20015;-61
2023/10/16 02:14:45;;;;;;;8.85;1.40;;;;;;;9.80;72.94;102147.84;7396488;19;20099;-60
2023/10/16 02:17:14;;;;;;;7.38;1.20;;;;;;;9.73;73.12;102154.38;7397134;19;20018;-60
2023/10/16 02:19:44;;;;;;;6.95;1.40;;;;;;;9.65;73.39;102154.72;7394577;19;20361;-60
2023/10/16 02:22:12;;;;;;;3.47;1.08;;;;;;;9.76;72.99;102141.84;7397084;19;20023;-61
2023/10/16 02:24:40;;;;;;;5.05;1.10;;;;;;;9.82;72.71;102140.69;7395795;19;20019;-61
2023/10/16 02:27:11;;;;;;;3.70;1.10;;;;;;;9.84;72.64;102141.47;7392481;19;20019;-60
2023/10/16 02:29:45;;;;;;;5.45;1.30;;;;;;;9.86;72.81;102138.78;7393422;19;20395;-61
2023/10/16 02:32:14;;;;;;;4.22;1.20;;;;;;;9.77;72.84;102142.72;7397292;19;20036;-60
2023/10/16 02:34:42;;;;;;;5.05;1.20;;;;;;;9.75;72.98;102149.84;7396030;19;20027;-60
2023/10/16 02:37:11;;;;;;;6.80;1.17;;;;;;;9.73;73.01;102141.16;7396903;19;20018;-62
2023/10/16 02:39:38;;;;;;;5.40;1.20;;;;;;;9.71;73.02;102149.16;7392787;19;20014;-63
2023/10/16 02:42:08;;;;;;;5.75;1.13;;;;;;;9.73;73.23;102152.59;7396374;19;20496;-61
2023/10/16 02:44:39;;;;;;;4.18;1.10;;;;;;;9.66;73.34;102150.31;7396084;19;20018;-61
2023/10/16 02:47:08;;;;;;;5.38;1.10;;;;;;;9.78;73.06;102149.72;7396721;19;20098;-61
2023/10/16 02:49:36;;;;;;;6.50;1.20;;;;;;;9.80;72.77;102147.00;7391506;19;20015;-61
2023/10/16 02:52:06;;;;;;;4.22;1.00;;;;;;;9.86;72.84;102150.22;7395650;19;20019;-61
2023/10/16 02:54:34;;;;;;;5.75;1.45;;;;;;;9.83;72.89;102145.06;7395684;19;20019;-61
2023/10/16 02:57:02;;;;;;;5.53;1.27;;;;;;;9.72;73.65;102153.50;7395970;19;20078;-61
2023/10/16 02:59:31;;;;;;;4.32;1.10;;;;;;;9.69;73.76;102155.44;7389993;19;20475;-61
2023/10/16 03:02:04;;;;;;;7.60;1.83;;;;;;;9.65;73.82;102157.38;7392283;19;20019;-61
2023/10/16 03:04:33;;;;;;;4.53;1.20;;;;;;;9.61;74.03;102154.94;7395150;19;20373;-61
2023/10/16 03:07:00;;;;;;;4.38;1.20;;;;;;;9.57;74.16;102159.50;7395573;19;20018;-60
2023/10/16 03:09:28;;;;;;;5.28;0.82;;;;;;;9.64;73.74;102150.38;7391880;19;20021;-60
2023/10/16 03:12:08;;;;;;;4.07;1.00;;;;;;;9.63;73.74;102151.31;7394957;19;20015;-61
2023/10/16 03:14:45;;;;;;;7.55;1.20;;;;;;;9.63;73.67;102151.31;7393434;19;20014;-60
2023/10/16 03:18:00;;;;;;;6.07;0.95;;;;;;;9.60;73.55;102153.22;7394784;19;20021;-61
2023/10/16 03:20:19;;;;;;;2.97;0.98;;;;;;;9.52;73.92;102143.88;7393539;19;20022;-61
2023/10/16 03:22:49;;;;;;;4.55;1.05;;;;;;;9.67;73.61;102144.09;7394410;19;20018;-61
2023/10/16 03:28:05;;;;;;;5.95;1.10;;;;;;;9.67;73.49;102142.28;7394803;19;20036;-61
2023/10/16 03:30:34;;;;;;;4.68;0.90;;;;;;;9.72;73.44;102148.22;7393804;19;20030;-62
2023/10/16 03:33:05;;;;;;;5.65;1.25;;;;;;;9.73;73.39;102149.09;7394976;19;20014;-61
2023/10/16 03:35:38;;;;;;;5.95;1.35;;;;;;;9.79;73.24;102146.13;7394952;19;20035;-61
2023/10/16 03:38:10;;;;;;;4.37;1.00;;;;;;;9.75;73.49;102137.50;7395533;19;20031;-61
2023/10/16 03:40:41;;;;;;;4.05;1.00;;;;;;;9.75;73.19;102137.50;7392420;19;20019;-62
2023/10/16 03:43:09;;;;;;;3.50;1.10;;;;;;;9.76;73.50;102143.63;7393497;19;20382;-62
2023/10/16 03:45:40;;;;;;;5.57;1.00;;;;;;;9.80;73.60;102153.13;7394056;19;20035;-62
2023/10/16 03:48:10;;;;;;;4.03;1.08;;;;;;;9.74;73.83;102158.75;7390840;19;20032;-62
2023/10/16 03:50:39;;;;;;;3.53;0.88;;;;;;;9.67;73.90;102152.03;7393285;19;20019;-62
2023/10/16 03:53:07;;;;;;;3.78;0.95;;;;;;;9.71;74.01;102154.44;7392599;19;20022;-61
2023/10/16 03:55:47;;;;;;;6.95;1.10;;;;;;;9.83;73.99;102152.13;7393502;19;20022;-61
2023/10/16 03:58:16;;;;;;;5.82;1.30;;;;;;;9.83;73.83;102155.63;7391898;19;20026;-62
2023/10/16 04:00:53;;;;;;;5.30;1.00;;;;;;;9.90;73.67;102151.78;7392289;19;20345;-62
2023/10/16 04:03:22;;;;;;;4.32;1.25;;;;;;;9.93;74.00;102153.41;7393508;19;20513;-62
2023/10/16 04:05:50;;;;;;;5.78;0.80;;;;;;;9.93;73.98;102156.91;7393860;19;20018;-62
2023/10/16 04:08:23;;;;;;;4.53;1.00;;;;;;;9.95;73.98;102149.75;7392868;19;20373;-62
2023/10/16 04:10:56;;;;;;;4.77;1.23;;;;;;;9.88;74.14;102158.06;7390771;19;20014;-62
2023/10/16 04:13:26;;;;;;;4.10;0.90;;;;;;;9.82;74.45;102153.94;7393589;19;21087;-62
2023/10/16 04:18:32;;;;;;;6.03;1.02;;;;;;;9.93;74.78;102158.72;7392395;19;20035;-62
2023/10/16 04:53:22;;;;;;;2.20;1.00;;;;;;;9.82;77.64;102132.75;7391496;19;20026;-62
2023/10/16 04:55:53;;;;;;;5.95;1.17;;;;;;;9.84;77.10;102132.69;7390150;19;20034;-62
2023/10/16 05:00:57;;;;;;;5.25;1.17;;;;;;;9.93;76.76;102119.88;7390831;19;20011;-62
2023/10/16 05:14:22;;;;;;;4.00;1.20;;;;;;;9.86;76.94;102126.38;7391405;19;20031;-61
2023/10/16 05:19:52;;;;;;;3.00;1.15;;;;;;;9.80;77.36;102129.31;7388939;19;20346;-62
2023/10/16 06:15:00;;;;;;;6.80;1.27;;;;;;;9.89;78.35;102151.84;7397117;19;20366;-62
2023/10/16 06:17:28;;;;;;;4.45;1.10;;;;;;;10.05;77.77;102147.53;7395607;19;20074;-62
2023/10/16 06:19:56;;;;;;;5.32;1.35;;;;;;;10.02;77.80;102151.16;7393530;19;20093;-62
2023/10/16 06:22:24;;;;;;;6.32;1.55;;;;;;;10.10;77.60;102150.78;7397180;19;20014;-61
2023/10/16 06:24:52;;;;;;;4.03;1.10;;;;;;;10.16;77.16;102150.50;7396427;19;20487;-62
2023/10/16 06:27:20;;;;;;;6.32;1.33;;;;;;;10.11;77.42;102152.53;7396936;19;20376;-62
2023/10/16 06:29:51;;;;;;;2.95;1.00;;;;;;;10.10;77.15;102147.28;7393586;19;20637;-62
2023/10/16 06:32:26;;;;;;;3.42;1.23;;;;;;;10.13;77.30;102152.44;7395944;19;20019;-62
2023/10/16 06:34:57;;;;;;;5.05;1.30;;;;;;;10.14;77.23;102149.69;7396672;19;20018;-62
2023/10/16 06:37:28;;;;;;;4.25;1.30;;;;;;;10.14;77.20;102152.34;7395029;19;20488;-62
2023/10/16 06:40:16;;;;;;;4.20;1.15;;;;;;;10.18;77.02;102153.06;7391324;19;20081;-62
2023/10/16 06:42:46;;;;;;;4.57;1.20;;;;;;;10.05;77.58;102162.56;7396846;19;20026;-62
2023/10/16 06:45:22;;;;;;;4.90;1.20;;;;;;;10.14;77.36;102168.22;7394812;19;20533;-63
2023/10/16 06:47:50;;;;;;;4.50;1.23;;;;;;;10.20;77.07;102164.44;7395868;19;20029;-62
2023/10/16 06:52:52;;;;;;;6.28;1.30;;;;;;;10.10;77.68;102174.63;7396899;19;20031;-61
2023/10/16 06:55:23;;;;;;;5.97;1.27;;;;;;;10.19;77.30;102176.81;7397098;19;20029;-62
2023/10/16 06:57:51;;;;;;;3.58;1.20;;;;;;;10.27;77.12;102172.97;7394717;19;20014;-62
2023/10/16 07:00:38;;;;;;;3.55;1.38;;;;;;;10.28;77.01;102185.28;7394894;19;20039;-62
2023/10/16 07:03:12;;;;;;;6.10;1.58;;;;;;;10.19;77.64;102182.13;7394062;19;20476;-62
2023/10/16 07:05:43;;;;;;;6.78;1.60;;;;;;;10.24;77.42;102185.38;7396226;19;20018;-62
2023/10/16 07:08:17;;;;;;;5.57;1.27;;;;;;;10.30;77.20;102180.75;7395452;19;20037;-61
2023/10/16 07:10:51;;;;;;;4.35;1.30;;;;;;;10.29;77.00;102185.19;7394368;19;20368;-59
2023/10/16 07:13:27;;;;;;;4.00;1.27;;;;;;;10.32;77.31;102173.59;7394043;19;20420;-60
2023/10/16 07:16:00;;;;;;;3.28;1.40;;;;;;;10.36;77.04;102170.72;7394561;19;20394;-61
2023/10/16 07:18:32;;;;;;;3.83;1.30;;;;;;;10.27;77.10;102170.34;7394721;19;20034;-61
2023/10/16 07:23:35;;;;;;;4.68;1.38;;;;;;;10.30;77.02;102163.06;7395540;19;20026;-61
2023/10/16 07:26:06;;;;;;;4.40;1.55;;;;;;;10.30;77.11;102165.72;7394813;19;20451;-61
2023/10/16 07:28:33;;;;;;;4.53;1.63;;;;;;;10.37;76.90;102171.56;7393968;19;20026;-61
2023/10/16 07:31:02;;;;;;;3.83;1.40;;;;;;;10.33;76.92;102172.66;7393485;19;20038;-60
2023/10/16 07:33:32;;;;;;;4.80;1.70;;;;;;;10.37;77.08;102177.72;7394665;19;20364;-62
2023/10/16 07:35:59;;;;;;;4.35;1.83;;;;;;;10.44;76.68;102175.63;7394676;19;20018;-61
2023/10/16 07:38:28;;;;;;;3.90;1.60;;;;;;;10.60;76.69;102175.72;7390426;19;20022;-61
2023/10/16 07:40:58;;;;;;;5.30;1.75;;;;;;;10.77;76.34;102188.97;7393085;19;20387;-62
2023/10/16 07:43:28;;;;;;;5.10;1.50;;;;;;;10.82;76.35;102200.16;7394198;19;20015;-61
2023/10/16 07:48:46;;;;;;;5.78;2.08;;;;;;;10.83;76.54;102201.03;7393654;19;20030;-61
2023/10/16 07:51:16;;;;;;;4.80;2.00;;;;;;;10.79;76.57;102195.03;7395923;19;20069;-62
2023/10/16 07:53:43;;;;;;;5.95;1.60;;;;;;;10.71;76.96;102195.41;7394958;19;20040;-62
2023/10/16 07:58:55;;;;;;;6.05;1.70;;;;;;;10.86;76.43;102207.03;7391643;19;20018;-61
2023/10/16 08:01:36;;;;;;;7.07;2.45;;;;;;;10.85;76.40;102205.31;7394105;19;20014;-61
2023/10/16 08:04:06;;;;;;;5.28;2.53;;;;;;;10.84;76.39;102206.25;7393355;19;20018;-62
2023/10/16 08:06:37;;;;;;;5.80;2.10;;;;;;;10.92;76.29;102214.66;7393713;19;20015;-62
2023/10/16 08:12:34;;;;;;;6.25;1.40;;;;;;;10.97;76.38;102214.44;7391606;19;20026;-61
2023/10/16 08:15:09;;;;;;;8.55;1.73;;;;;;;10.96;76.59;102218.88;7393228;19;20040;-63
2023/10/16 08:17:36;;;;;;;;;;;;;;;10.81;76.82;102211.72;7392985;19;20086;-60
2023/10/16 08:20:08;;;;;;;4.40;1.30;;;;;;;10.82;77.17;102210.78;7392343;19;20036;-61
2023/10/16 08:22:36;;;;;;;4.75;1.10;;;;;;;10.90;76.40;102224.47;7393240;19;20018;-61
2023/10/16 08:25:07;;;;;;;2.92;1.00;;;;;;;10.86;76.61;102214.13;7393481;19;20676;-61
2023/10/16 08:30:18;;;;;;;4.78;1.30;;;;;;;10.82;76.54;102226.66;7391552;19;20018;-61
2023/10/16 08:35:19;;;;;;;6.88;1.30;;;;;;;10.81;76.81;102230.25;7393416;19;20081;-61
2023/10/16 08:38:14;;;;;;;4.20;1.20;;;;;;;10.83;76.82;102227.53;7392027;19;20018;-61
2023/10/16 08:40:46;;;;;;;3.90;1.23;;;;;;;10.83;76.90;102222.22;7391614;19;20467;-62
2023/10/16 08:43:17;;;;;;;3.30;1.23;;;;;;;10.97;77.15;102225.03;7392796;19;20023;-62
2023/10/16 08:45:49;;;;;;;5.75;1.40;;;;;;;11.01;76.69;102231.88;7391911;19;20519;-62
2023/10/16 08:48:18;;;;;;;6.18;1.65;;;;;;;11.06;76.55;102232.50;7392006;19;20023;-62
2023/10/16 08:50:58;;;;;;;3.97;1.50;;;;;;;11.15;76.48;102224.06;7390953;19;20021;-62
2023/10/16 08:53:35;;;;;;;4.03;1.33;;;;;;;11.11;76.46;102229.63;7392134;19;20019;-62
2023/10/16 08:56:07;;;;;;;3.47;1.40;;;;;;;11.17;76.61;102240.75;7391824;19;20014;-62
2023/10/16 08:58:44;;;;;;;4.70;1.63;;;;;;;11.23;76.74;102239.59;7390347;19;20025;-62
2023/10/16 09:01:18;;;;;;;6.70;1.90;;;;;;;11.27;76.57;102242.94;7391383;19;20028;-63
2023/10/16 09:03:54;;;;;;;7.30;1.83;;;;;;;11.30;76.52;102248.09;7391493;19;20018;-63
2023/10/16 09:06:23;;;;;;;4.88;1.70;;;;;;;11.27;76.29;102241.13;7392540;19;20036;-63
2023/10/16 09:08:54;;;;;;;5.10;1.98;;;;;;;11.28;76.25;102242.00;7389959;19;20044;-62
2023/10/16 09:11:24;;;;;;;6.57;1.73;;;;;;;11.29;76.31;102246.34;7391614;19;20024;-62
2023/10/16 09:13:52;;;;;;;6.93;1.98;;;;;;;11.26;76.60;102243.88;7391587;19;20010;-62
2023/10/16 09:16:23;;;;;;;5.85;1.67;;;;;;;11.31;76.25;102241.81;7391240;19;20024;-62
2023/10/16 09:18:53;;;;;;;5.10;1.70;;;;;;;11.40;75.68;102241.31;7388336;19;20025;-62
2023/10/16 09:21:24;;;;;;;4.07;1.60;;;;;;;11.63;75.17;102240.94;7391636;19;20018;-62
2023/10/16 09:23:52;;;;;;;6.95;1.60;;;;;;;11.77;74.61;102245.50;7391610;19;20045;-62
2023/10/16 09:26:44;;;;;;;7.05;1.80;;;;;;;11.72;74.33;102247.56;7390795;19;20018;-63
2023/10/16 09:29:14;;;;;;;4.53;1.30;;;;;;;11.60;74.65;102264.13;7388371;19;20368;-63
2023/10/16 09:31:46;;;;;;;4.80;1.40;;;;;;;11.60;75.02;102258.81;7389725;19;20024;-63
2023/10/16 09:34:18;;;;;;;5.47;1.58;;;;;;;11.61;75.10;102253.47;7390364;19;20025;-63
2023/10/16 09:36:48;;;;;;;6.90;2.20;;;;;;;11.70;74.76;102260.06;7389295;19;20023;-62
2023/10/16 09:39:17;;;;;;;8.98;2.67;;;;;;;11.74;75.00;102258.94;7388296;19;20022;-63
2023/10/16 09:41:51;;;;;;;5.88;2.78;;;;;;;11.83;74.88;102254.91;7390987;19;20418;-63
2023/10/16 09:44:22;;;;;;;4.80;2.00;;;;;;;11.73;75.39;102254.59;7390724;19;20031;-63
2023/10/16 09:46:53;;;;;;;5.53;1.80;;;;;;;11.77;75.58;102250.81;7390967;19;20015;-63
2023/10/16 09:49:23;;;;;;;6.60;3.00;;;;;;;11.79;75.36;102248.97;7387622;19;20022;-63
2023/10/16 09:51:59;;;;;;;7.38;3.00;;;;;;;11.87;75.05;102256.53;7390119;19;20499;-62
2023/10/16 09:54:35;;;;;;;7.43;3.30;;;;;;;11.80;74.73;102245.34;7391025;19;20027;-63
2023/10/16 09:57:08;;;;;;;7.82;3.03;;;;;;;11.86;73.49;102247.69;7390106;19;20047;-63
2023/10/16 09:59:38;;;;;;;9.45;2.70;;;;;;;11.94;73.57;102253.44;7384273;19;20039;-63
2023/10/16 10:02:19;;;;;;;7.85;3.30;;;;;;;11.99;73.83;102253.19;7390462;19;20014;-63
2023/10/16 10:04:59;;;;;;;5.20;2.05;;;;;;;12.12;73.79;102248.03;7389860;19;20018;-63
2023/10/16 10:07:34;;;;;;;6.38;2.30;;;;;;;12.13;73.24;102249.75;7389819;19;20014;-62
2023/10/16 10:12:56;;;;;;;9.80;2.70;;;;;;;12.10;72.72;102255.25;7397366;19;20027;-62
2023/10/16 10:15:26;;;;;;;6.60;1.90;;;;;;;12.06;72.48;102259.03;7397274;19;20040;-63
2023/10/16 10:17:56;;;;;;;7.60;2.20;;;;;;;12.12;72.52;102251.56;7396198;19;20043;-62
2023/10/16 10:20:31;;;;;;;4.85;1.60;;;;;;;12.22;72.19;102254.56;7395881;19;20027;-62
2023/10/16 10:23:04;;;;;;;5.28;1.77;;;;;;;12.28;72.06;102258.66;7396625;19;20398;-62
2023/10/16 10:25:37;;;;;;;8.00;1.25;;;;;;;12.32;71.24;102252.22;7396539;19;20040;-62
2023/10/16 10:28:16;;;;;;;6.85;1.70;;;;;;;12.43;70.72;102252.47;7392691;19;20034;-62
2023/10/16 10:30:45;;;;;;;4.65;1.20;;;;;;;12.41;70.50;102252.56;7395050;19;20014;-62
2023/10/16 10:33:33;;;;;;;4.25;1.10;;;;;;;12.42;70.20;102248.94;7400063;19;20537;-62
2023/10/16 10:36:39;;;;;;;5.57;1.30;;;;;;;12.35;69.37;102252.91;7396198;19;20044;-62
2023/10/16 10:39:22;;;;;;;2.33;0.88;;;;;;;12.32;70.11;102250.41;7389459;19;20086;-62
2023/10/16 10:41:54;;;;;;;3.15;1.02;;;;;;;12.15;70.46;102254.03;7397280;19;20016;-63
2023/10/16 10:44:32;;;;;;;4.47;1.35;;;;;;;12.23;70.50;102252.75;7396058;19;20010;-62
2023/10/16 10:47:05;;;;;;;3.03;1.02;;;;;;;12.18;71.01;102258.34;7396074;19;20043;-62
2023/10/16 10:49:34;;;;;;;5.18;1.20;;;;;;;12.18;71.57;102255.69;7392342;19;20010;-62
2023/10/16 10:52:04;;;;;;;4.40;1.23;;;;;;;12.20;72.11;102267.91;7396149;19;20033;-63
2023/10/16 10:54:42;;;;;;;4.93;1.10;;;;;;;12.10;72.35;102263.22;7393869;19;20047;-62
2023/10/16 10:57:18;;;;;;;3.97;1.30;;;;;;;12.08;73.27;102268.59;7399570;19;20360;-62
2023/10/16 10:59:47;;;;;;;3.80;1.23;;;;;;;12.11;73.30;102264.94;7392538;19;20029;-62
2023/10/16 11:04:53;;;;;;;3.92;1.10;;;;;;;12.22;73.25;102265.19;7395116;19;20015;-62
2023/10/16 11:07:48;;;;;;;3.55;1.10;;;;;;;12.44;72.53;102255.06;7395743;19;20014;-63
2023/10/16 11:10:16;;;;;;;5.97;1.00;;;;;;;12.57;71.56;102259.66;7395522;19;20482;-63
2023/10/16 11:12:44;;;;;;;2.40;0.82;;;;;;;12.75;70.12;102245.28;7395853;19;20039;-62
2023/10/16 11:15:16;;;;;;;2.40;0.63;;;;;;;12.96;69.02;102251.13;7394951;19;20499;-61
2023/10/16 11:17:44;;;;;;;3.33;0.70;;;;;;;13.04;68.26;102246.19;7393318;19;20039;-61
2023/10/16 11:22:46;;;;;;;4.45;1.30;;;;;;;13.03;67.96;102246.31;7393195;19;20022;-61
2023/10/16 11:25:14;;;;;;;3.70;1.23;;;;;;;12.97;68.32;102251.97;7391206;19;20044;-61
2023/10/16 11:27:43;;;;;;;3.00;1.10;;;;;;;12.90;69.33;102247.03;7392718;19;20356;-61
2023/10/16 11:30:12;;;;;;;3.65;1.40;;;;;;;12.97;69.70;102238.69;7392086;19;20022;-61
2023/10/16 11:32:46;;;;;;;5.20;1.20;;;;;;;12.86;70.11;102245.53;7392755;19;20080;-61
2023/10/16 11:35:18;;;;;;;3.55;1.30;;;;;;;12.80;70.08;102235.22;7393540;19;20023;-62
2023/10/16 11:37:52;;;;;;;4.13;1.30;;;;;;;12.76;69.91;102239.03;7392194;19;20018;-62
2023/10/16 11:40:31;;;;;;;;;;;;;;;12.48;71.10;102238.91;7391716;19;20375;-62
2023/10/16 11:43:02;;;;;;;5.32;1.60;;;;;;;12.49;71.65;102232.66;7392328;19;20352;-62
2023/10/16 11:45:33;;;;;;;5.43;1.55;;;;;;;12.61;71.52;102234.59;7392923;19;20495;-62
2023/10/16 11:51:10;;;;;;;5.75;1.40;;;;;;;12.44;71.63;102240.91;7391143;19;20036;-61
2023/10/16 11:53:37;;;;;;;7.40;1.50;;;;;;;12.52;71.74;102232.50;7390752;19;20026;-61
2023/10/16 11:56:08;;;;;;;2.92;1.00;;;;;;;12.53;71.45;102235.06;7392324;19;20031;-62
2023/10/16 11:58:36;;;;;;;7.00;1.40;;;;;;;12.57;70.88;102235.72;7391394;19;20023;-62
2023/10/16 12:01:09;;;;;;;4.60;1.35;;;;;;;12.65;71.00;102230.81;7390621;19;20021;-62
2023/10/16 12:03:40;;;;;;;4.40;1.35;;;;;;;12.63;72.00;102227.38;7392019;19;20392;-63
2023/10/16 12:06:10;;;;;;;5.25;1.50;;;;;;;12.62;72.57;102226.53;7392107;19;20480;-61
2023/10/16 12:08:37;;;;;;;3.75;1.25;;;;;;;12.62;72.20;102225.69;7388342;19;20018;-63
2023/10/16 12:11:06;;;;;;;5.68;1.00;;;;;;;12.61;71.37;102231.94;7390835;19;20006;-61
2023/10/16 12:13:34;;;;;;;6.00;1.35;;;;;;;12.58;71.15;102226.81;7391066;19;20035;-61
2023/10/16 12:16:02;;;;;;;3.80;1.00;;;;;;;12.60;70.75;102238.22;7247227;19;2778410;-61
2023/10/16 12:18:31;;;;;;;1.48;0.77;;;;;;;12.66;70.63;102229.88;7392354;19;20035;-63
2023/10/16 12:21:05;;;;;;;2.25;0.65;;;;;;;12.79;69.92;102230.03;7392116;19;20026;-63
2023/10/16 12:23:34;;;;;;;;;;;;;;;12.68;67.82;102228.00;7392523;19;20015;-62
2023/10/16 12:26:02;;;;;;;4.25;0.60;;;;;;;12.71;69.45;102229.63;7393023;19;19922;-64
2023/10/16 12:28:30;;;;;;;3.25;0.75;;;;;;;12.95;68.07;102224.63;7392504;19;20029;-62
2023/10/16 12:30:58;;;;;;;1.63;0.80;;;;;;;13.06;67.20;102223.03;7390867;19;20091;-65
2023/10/16 12:33:26;;;;;;;3.72;0.80;;;;;;;13.12;66.86;102229.78;7392579;19;20014;-60
2023/10/16 12:35:55;;;;;;;3.10;0.63;;;;;;;13.15;65.94;102222.47;7392680;19;20031;-63
2023/10/16 12:38:26;;;;;;;2.85;0.80;;;;;;;13.15;65.94;102226.94;7391761;19;20022;-62
2023/10/16 12:40:55;;;;;;;3.72;0.70;;;;;;;13.07;65.89;102221.22;7391090;19;20495;-62
2023/10/16 12:43:27;;;;;;;5.38;1.30;;;;;;;13.05;66.31;102223.13;7392972;19;20085;-63
2023/10/16 12:45:57;;;;;;;6.72;1.05;;;;;;;13.08;66.72;102226.44;7391984;19;20011;-64
2023/10/16 12:48:28;;;;;;;4.65;0.98;;;;;;;13.23;66.54;102216.72;7392001;19;20022;-61
2023/10/16 12:50:59;;;;;;;3.33;1.00;;;;;;;13.37;65.83;102229.19;7391027;19;20018;-62
2023/10/16 12:53:47;;;;;;;5.72;1.38;;;;;;;13.34;66.96;102230.22;7391585;19;20014;-62
2023/10/16 12:56:17;;;;;;;2.15;1.15;;;;;;;13.39;67.00;102222.81;7391680;19;20018;-62
2023/10/16 12:58:44;;;;;;;4.85;1.30;;;;;;;13.43;66.50;102228.78;7389613;19;20022;-62
2023/10/16 13:01:12;;;;;;;3.17;0.80;;;;;;;13.47;65.55;102221.47;7391948;19;20026;-62
2023/10/16 13:03:41;;;;;;;6.40;0.80;;;;;;;13.37;65.27;102227.38;7391752;19;20023;-62
2023/10/16 13:06:08;;;;;;;5.22;0.90;;;;;;;13.34;65.42;102216.91;7392026;19;20401;-62
2023/10/16 13:08:36;;;;;;;3.22;0.70;;;;;;;13.25;66.15;102217.50;7390915;19;20375;-62
2023/10/16 13:11:07;;;;;;;3.50;0.73;;;;;;;13.21;66.02;102220.41;7390091;19;20014;-62
2023/10/16 13:13:34;;;;;;;2.88;0.80;;;;;;;13.21;66.00;102220.41;7391807;19;20015;-62
2023/10/16 13:16:04;;;;;;;2.95;0.93;;;;;;;13.18;65.43;102226.75;7391323;19;20022;-63
2023/10/16 13:18:32;;;;;;;5.07;0.82;;;;;;;13.09;65.69;102220.19;7390760;19;20087;-62
2023/10/16 13:21:06;;;;;;;3.45;1.00;;;;;;;13.10;66.07;102221.06;7390566;19;20495;-62
2023/10/16 13:23:36;;;;;;;3.13;0.82;;;;;;;13.11;65.64;102228.94;7391672;19;20015;-62
2023/10/16 13:26:14;;;;;;;3.78;0.93;;;;;;;13.04;64.97;102232.91;7391249;19;20030;-62
2023/10/16 13:28:43;;;;;;;3.47;0.70;;;;;;;13.12;64.91;102227.97;7389149;19;20488;-63
2023/10/16 13:31:11;;;;;;;3.47;1.30;;;;;;;13.06;64.76;102228.34;7391400;19;20023;-62
2023/10/16 13:33:41;;;;;;;2.25;0.90;;;;;;;13.03;64.47;102225.03;7390787;19;20025;-62
2023/10/16 13:36:11;;;;;;;7.63;1.48;;;;;;;13.01;64.26;102222.47;7391496;19;20040;-62
2023/10/16 13:38:39;;;;;;;3.50;0.82;;;;;;;13.03;64.48;102222.38;7390133;19;20114;-62
2023/10/16 13:41:17;;;;;;;7.47;1.42;;;;;;;13.02;64.96;102225.97;7390929;19;20015;-62
2023/10/16 13:43:45;;;;;;;5.35;1.17;;;;;;;12.89;64.58;102221.38;7396093;19;20364;-62
2023/10/16 13:46:14;;;;;;;4.05;1.00;;;;;;;12.86;64.27;102220.75;7398191;19;20022;-62
2023/10/16 13:48:48;;;;;;;4.93;1.00;;;;;;;12.85;64.22;102209.22;7396559;19;20647;-62
2023/10/16 13:51:16;;;;;;;4.53;1.23;;;;;;;12.79;65.03;102214.91;7397970;19;20027;-62
2023/10/16 13:53:46;;;;;;;5.32;1.10;;;;;;;12.81;64.98;102209.50;7397811;19;20019;-62
2023/10/16 13:56:16;;;;;;;6.35;1.02;;;;;;;12.85;64.93;102214.53;7398157;19;20027;-63
2023/10/16 13:58:49;;;;;;;5.97;1.00;;;;;;;12.87;65.10;102207.34;7393722;19;20018;-63
2023/10/16 14:01:17;;;;;;;6.07;0.90;;;;;;;12.89;65.03;102207.22;7395919;19;20021;-63
2023/10/16 14:03:44;;;;;;;4.50;1.45;;;;;;;12.95;64.22;102209.53;7395815;19;20283;-63
2023/10/16 14:06:12;;;;;;;8.02;1.15;;;;;;;12.92;63.92;102215.88;7398099;19;20021;-62
2023/10/16 14:08:41;;;;;;;3.60;1.10;;;;;;;12.95;64.04;102209.53;7396068;19;20063;-63